sensor_id;sensor_type;location;lat;lon;timestamp;pressure;altitude;pressure_sealevel;temperature;humidity
46015;BME280;36844;51.898;-0.874;2023-05-25T00:01:13;101631.81;;;19.73;
46015;BME280;36844;51.898;-0.874;2023-05-25T00:03:40;101626.41;;;19.73;
46015;BME280;36844;51.898;-0.874;2023-05-25T00:06:06;101620.56;;;19.71;
46015;BME280;36844;51.898;-0.874;2023-05-25T00:08:31;101610.53;;;19.72;
46015;BME280;36844;51.898;-0.874;2023-05-25T00:10:56;101617.88;;;19.71;
46015;BME280;36844;51.898;-0.874;2023-05-25T00:13:22;101615.16;;;19.71;
46015;BME280;36844;51.898;-0.874;2023-05-25T00:15:47;101612.47;;;19.71;
46015;BME280;36844;51.898;-0.874;2023-05-25T00:18:12;101618.28;;;19.70;
46015;BME280;36844;51.898;-0.874;2023-05-25T00:20:37;101610.19;;;19.70;
46015;BME280;36844;51.898;-0.874;2023-05-25T00:23:03;101617.50;;;19.69;
46015;BME280;36844;51.898;-0.874;2023-05-25T00:25:28;101619.78;;;19.67;
46015;BME280;36844;51.898;-0.874;2023-05-25T00:27:53;101627.13;;;19.67;
46015;BME280;36844;51.898;-0.874;2023-05-25T00:30:18;101638.69;;;19.67;
46015;BME280;36844;51.898;-0.874;2023-05-25T00:32:44;101631.00;;;19.66;
46015;BME280;36844;51.898;-0.874;2023-05-25T00:35:09;101635.25;;;19.67;
46015;BME280;36844;51.898;-0.874;2023-05-25T00:37:35;101637.94;;;19.67;
46015;BME280;36844;51.898;-0.874;2023-05-25T00:40:00;101632.13;;;19.65;
46015;BME280;36844;51.898;-0.874;2023-05-25T00:42:25;101634.06;;;19.64;
46015;BME280;36844;51.898;-0.874;2023-05-25T00:44:52;101633.28;;;19.64;
46015;BME280;36844;51.898;-0.874;2023-05-25T00:47:17;101633.28;;;19.64;
46015;BME280;36844;51.898;-0.874;2023-05-25T00:49:42;101635.22;;;19.63;
46015;BME280;36844;51.898;-0.874;2023-05-25T00:52:08;101640.63;;;19.63;
46015;BME280;36844;51.898;-0.874;2023-05-25T00:54:35;101641.78;;;19.62;
46015;BME280;36844;51.898;-0.874;2023-05-25T00:57:02;101641.00;;;19.62;
46015;BME280;36844;51.898;-0.874;2023-05-25T00:59:35;101648.34;;;19.61;
46015;BME280;36844;51.898;-0.874;2023-05-25T01:02:06;101645.63;;;19.61;
46015;BME280;36844;51.898;-0.874;2023-05-25T01:04:33;101640.59;;;19.60;
46015;BME280;36844;51.898;-0.874;2023-05-25T01:06:59;101654.13;;;19.60;
46015;BME280;36844;51.898;-0.874;2023-05-25T01:09:26;101642.53;;;19.59;
46015;BME280;36844;51.898;-0.874;2023-05-25T01:11:52;101645.22;;;19.59;
46015;BME280;36844;51.898;-0.874;2023-05-25T01:14:19;101643.31;;;19.60;
46015;BME280;36844;51.898;-0.874;2023-05-25T01:16:46;101641.75;;;19.59;
46015;BME280;36844;51.898;-0.874;2023-05-25T01:19:11;101642.91;;;19.58;
46015;BME280;36844;51.898;-0.874;2023-05-25T01:21:41;101648.69;;;19.56;
46015;BME280;36844;51.898;-0.874;2023-05-25T01:24:27;101649.47;;;19.57;
46015;BME280;36844;51.898;-0.874;2023-05-25T01:29:27;101651.00;;;19.54;
46015;BME280;36844;51.898;-0.874;2023-05-25T01:31:53;101646.34;;;19.55;
46015;BME280;36844;51.898;-0.874;2023-05-25T01:34:19;101649.06;;;19.55;
46015;BME280;36844;51.898;-0.874;2023-05-25T01:36:45;101652.16;;;19.53;
46015;BME280;36844;51.898;-0.874;2023-05-25T01:39:11;101656.41;;;19.54;
46015;BME280;36844;51.898;-0.874;2023-05-25T01:41:36;101656.78;;;19.53;
46015;BME280;36844;51.898;-0.874;2023-05-25T01:44:01;101656.78;;;19.53;
46015;BME280;36844;51.898;-0.874;2023-05-25T01:46:45;101664.13;;;19.52;
46015;BME280;36844;51.898;-0.874;2023-05-25T01:49:15;101663.31;;;19.52;
46015;BME280;36844;51.898;-0.874;2023-05-25T01:51:50;101654.44;;;19.51;
46015;BME280;36844;51.898;-0.874;2023-05-25T01:54:19;101652.91;;;19.50;
46015;BME280;36844;51.898;-0.874;2023-05-25T01:56:45;101661.00;;;19.50;
46015;BME280;36844;51.898;-0.874;2023-05-25T01:59:15;101662.53;;;19.51;
46015;BME280;36844;51.898;-0.874;2023-05-25T02:01:43;101660.25;;;19.50;
46015;BME280;36844;51.898;-0.874;2023-05-25T02:04:09;101652.16;;;19.50;
46015;BME280;36844;51.898;-0.874;2023-05-25T02:06:35;101659.47;;;19.49;
46015;BME280;36844;51.898;-0.874;2023-05-25T02:09:01;101651.38;;;19.49;
46015;BME280;36844;51.898;-0.874;2023-05-25T02:11:26;101651.38;;;19.49;
46015;BME280;36844;51.898;-0.874;2023-05-25T02:13:51;101647.09;;;19.48;
46015;BME280;36844;51.898;-0.874;2023-05-25T02:16:16;101660.59;;;19.48;
46015;BME280;36844;51.898;-0.874;2023-05-25T02:18:42;101657.13;;;19.48;
46015;BME280;36844;51.898;-0.874;2023-05-25T02:21:08;101659.03;;;19.47;
46015;BME280;36844;51.898;-0.874;2023-05-25T02:23:33;101659.44;;;19.46;
46015;BME280;36844;51.898;-0.874;2023-05-25T02:25:59;101672.56;;;19.47;
46015;BME280;36844;51.898;-0.874;2023-05-25T02:28:24;101672.19;;;19.45;
46015;BME280;36844;51.898;-0.874;2023-05-25T02:30:49;101672.19;;;19.45;
46015;BME280;36844;51.898;-0.874;2023-05-25T02:33:15;101674.88;;;19.45;
46015;BME280;36844;51.898;-0.874;2023-05-25T02:35:40;101673.31;;;19.44;
46015;BME280;36844;51.898;-0.874;2023-05-25T02:38:05;101674.88;;;19.45;
46015;BME280;36844;51.898;-0.874;2023-05-25T02:40:31;101665.19;;;19.44;
46015;BME280;36844;51.898;-0.874;2023-05-25T02:42:56;101660.97;;;19.43;
46015;BME280;36844;51.898;-0.874;2023-05-25T02:45:21;101665.63;;;19.43;
46015;BME280;36844;51.898;-0.874;2023-05-25T02:47:47;101676.41;;;19.43;
46015;BME280;36844;51.898;-0.874;2023-05-25T02:50:12;101665.97;;;19.41;
46015;BME280;36844;51.898;-0.874;2023-05-25T02:52:37;101676.41;;;19.43;
46015;BME280;36844;51.898;-0.874;2023-05-25T02:55:02;101669.44;;;19.42;
46015;BME280;36844;51.898;-0.874;2023-05-25T02:57:28;101668.66;;;19.41;
46015;BME280;36844;51.898;-0.874;2023-05-25T02:59:54;101671.38;;;19.41;
46015;BME280;36844;51.898;-0.874;2023-05-25T03:02:19;101677.91;;;19.40;
46015;BME280;36844;51.898;-0.874;2023-05-25T03:04:45;101673.28;;;19.41;
46015;BME280;36844;51.898;-0.874;2023-05-25T03:07:11;101672.50;;;19.40;
46015;BME280;36844;51.898;-0.874;2023-05-25T03:09:36;101677.91;;;19.40;
46015;BME280;36844;51.898;-0.874;2023-05-25T03:12:01;101674.44;;;19.40;
46015;BME280;36844;51.898;-0.874;2023-05-25T03:14:27;101679.09;;;19.39;
46015;BME280;36844;51.898;-0.874;2023-05-25T03:16:52;101673.69;;;19.39;
46015;BME280;36844;51.898;-0.874;2023-05-25T03:19:17;101675.63;;;19.39;
46015;BME280;36844;51.898;-0.874;2023-05-25T03:21:44;101673.25;;;19.37;
46015;BME280;36844;51.898;-0.874;2023-05-25T03:24:09;101672.47;;;19.37;
46015;BME280;36844;51.898;-0.874;2023-05-25T03:26:34;101671.72;;;19.36;
46015;BME280;36844;51.898;-0.874;2023-05-25T03:29:00;101675.19;;;19.37;
46015;BME280;36844;51.898;-0.874;2023-05-25T03:31:25;101675.19;;;19.37;
46015;BME280;36844;51.898;-0.874;2023-05-25T03:33:50;101672.88;;;19.35;
46015;BME280;36844;51.898;-0.874;2023-05-25T03:36:15;101681.00;;;19.35;
46015;BME280;36844;51.898;-0.874;2023-05-25T03:38:46;101681.00;;;19.35;
46015;BME280;36844;51.898;-0.874;2023-05-25T03:41:11;101675.59;;;19.35;
46015;BME280;36844;51.898;-0.874;2023-05-25T03:43:36;101677.50;;;19.35;
46015;BME280;36844;51.898;-0.874;2023-05-25T03:46:01;101678.63;;;19.34;
46015;BME280;36844;51.898;-0.874;2023-05-25T03:48:26;101673.22;;;19.34;
46015;BME280;36844;51.898;-0.874;2023-05-25T03:50:52;101672.44;;;19.33;
46015;BME280;36844;51.898;-0.874;2023-05-25T03:53:17;101684.03;;;19.34;
46015;BME280;36844;51.898;-0.874;2023-05-25T03:55:42;101685.97;;;19.33;
46015;BME280;36844;51.898;-0.874;2023-05-25T03:58:08;101675.16;;;19.33;
46015;BME280;36844;51.898;-0.874;2023-05-25T04:00:36;101675.16;;;19.33;
46015;BME280;36844;51.898;-0.874;2023-05-25T04:03:01;101677.09;;;19.33;
46015;BME280;36844;51.898;-0.874;2023-05-25T04:05:26;101674.78;;;19.31;
46015;BME280;36844;51.898;-0.874;2023-05-25T04:07:52;101677.47;;;19.31;
46015;BME280;36844;51.898;-0.874;2023-05-25T04:10:17;101675.56;;;19.32;
46015;BME280;36844;51.898;-0.874;2023-05-25T04:12:42;101685.59;;;19.31;
46015;BME280;36844;51.898;-0.874;2023-05-25T04:15:07;101685.59;;;19.31;
46015;BME280;36844;51.898;-0.874;2023-05-25T04:17:33;101684.03;;;19.30;
46015;BME280;36844;51.898;-0.874;2023-05-25T04:19:59;101684.81;;;19.31;
46015;BME280;36844;51.898;-0.874;2023-05-25T04:22:25;101686.72;;;19.30;
46015;BME280;36844;51.898;-0.874;2023-05-25T04:24:50;101687.88;;;19.29;
46015;BME280;36844;51.898;-0.874;2023-05-25T04:27:15;101685.94;;;19.30;
46015;BME280;36844;51.898;-0.874;2023-05-25T04:29:40;101685.19;;;19.29;
46015;BME280;36844;51.898;-0.874;2023-05-25T04:32:07;101687.88;;;19.29;
46015;BME280;36844;51.898;-0.874;2023-05-25T04:34:33;101691.72;;;19.28;
46015;BME280;36844;51.898;-0.874;2023-05-25T04:36:59;101687.09;;;19.29;
46015;BME280;36844;51.898;-0.874;2023-05-25T04:39:29;101697.13;;;19.28;
46015;BME280;36844;51.898;-0.874;2023-05-25T04:41:54;101701.78;;;19.28;
46015;BME280;36844;51.898;-0.874;2023-05-25T04:44:19;101698.28;;;19.27;
46015;BME280;36844;51.898;-0.874;2023-05-25T04:46:44;101711.78;;;19.27;
46015;BME280;36844;51.898;-0.874;2023-05-25T04:49:11;101709.88;;;19.28;
46015;BME280;36844;51.898;-0.874;2023-05-25T04:51:37;101706.38;;;19.27;
46015;BME280;36844;51.898;-0.874;2023-05-25T04:54:02;101716.41;;;19.27;
46015;BME280;36844;51.898;-0.874;2023-05-25T04:56:27;101725.31;;;19.27;
46015;BME280;36844;51.898;-0.874;2023-05-25T04:58:53;101716.41;;;19.27;
46015;BME280;36844;51.898;-0.874;2023-05-25T05:01:18;101721.06;;;19.26;
46015;BME280;36844;51.898;-0.874;2023-05-25T05:03:44;101721.06;;;19.26;
46015;BME280;36844;51.898;-0.874;2023-05-25T05:06:09;101731.88;;;19.26;
46015;BME280;36844;51.898;-0.874;2023-05-25T05:08:35;101722.97;;;19.26;
46015;BME280;36844;51.898;-0.874;2023-05-25T05:11:00;101728.38;;;19.26;
46015;BME280;36844;51.898;-0.874;2023-05-25T05:13:25;101735.69;;;19.25;
46015;BME280;36844;51.898;-0.874;2023-05-25T05:15:50;101730.28;;;19.25;
46015;BME280;36844;51.898;-0.874;2023-05-25T05:18:16;101735.69;;;19.25;
46015;BME280;36844;51.898;-0.874;2023-05-25T05:20:41;101741.88;;;19.26;
46015;BME280;36844;51.898;-0.874;2023-05-25T05:23:07;101734.91;;;19.25;
46015;BME280;36844;51.898;-0.874;2023-05-25T05:25:32;101731.44;;;19.24;
46015;BME280;36844;51.898;-0.874;2023-05-25T05:27:57;101734.13;;;19.24;
46015;BME280;36844;51.898;-0.874;2023-05-25T05:30:22;101745.72;;;19.25;
46015;BME280;36844;51.898;-0.874;2023-05-25T05:32:47;101751.13;;;19.25;
46015;BME280;36844;51.898;-0.874;2023-05-25T05:35:13;101742.22;;;19.24;
46015;BME280;36844;51.898;-0.874;2023-05-25T05:37:38;101753.03;;;19.24;
46015;BME280;36844;51.898;-0.874;2023-05-25T05:40:03;101750.34;;;19.24;
46015;BME280;36844;51.898;-0.874;2023-05-25T05:42:29;101749.59;;;19.24;
46015;BME280;36844;51.898;-0.874;2023-05-25T05:44:54;101748.41;;;19.25;
46015;BME280;36844;51.898;-0.874;2023-05-25T05:47:19;101756.53;;;19.25;
46015;BME280;36844;51.898;-0.874;2023-05-25T05:49:45;101757.31;;;19.25;
46015;BME280;36844;51.898;-0.874;2023-05-25T05:52:11;101763.50;;;19.26;
46015;BME280;36844;51.898;-0.874;2023-05-25T05:54:36;101762.34;;;19.27;
46015;BME280;36844;51.898;-0.874;2023-05-25T05:57:01;101765.03;;;19.27;
46015;BME280;36844;51.898;-0.874;2023-05-25T05:59:27;101774.31;;;19.26;
46015;BME280;36844;51.898;-0.874;2023-05-25T06:01:52;101776.63;;;19.27;
46015;BME280;36844;51.898;-0.874;2023-05-25T06:04:18;101774.34;;;19.29;
46015;BME280;36844;51.898;-0.874;2023-05-25T06:06:43;101774.34;;;19.29;
46015;BME280;36844;51.898;-0.874;2023-05-25T06:09:09;101772.03;;;19.31;
46015;BME280;36844;51.898;-0.874;2023-05-25T06:11:35;101775.53;;;19.32;
46015;BME280;36844;51.898;-0.874;2023-05-25T06:14:00;101773.59;;;19.32;
46015;BME280;36844;51.898;-0.874;2023-05-25T06:16:26;101785.94;;;19.33;
46015;BME280;36844;51.898;-0.874;2023-05-25T06:18:51;101784.00;;;19.34;
46015;BME280;36844;51.898;-0.874;2023-05-25T06:21:16;101779.41;;;19.34;
46015;BME280;36844;51.898;-0.874;2023-05-25T06:23:41;101789.06;;;19.35;
46015;BME280;36844;51.898;-0.874;2023-05-25T06:26:07;101785.59;;;19.35;
46015;BME280;36844;51.898;-0.874;2023-05-25T06:28:32;101792.53;;;19.36;
46015;BME280;36844;51.898;-0.874;2023-05-25T06:30:57;101796.03;;;19.36;
46015;BME280;36844;51.898;-0.874;2023-05-25T06:33:22;101796.03;;;19.36;
46015;BME280;36844;51.898;-0.874;2023-05-25T06:35:48;101793.31;;;19.36;
46015;BME280;36844;51.898;-0.874;2023-05-25T06:38:13;101783.25;;;19.37;
46015;BME280;36844;51.898;-0.874;2023-05-25T06:40:38;101785.97;;;19.37;
46015;BME280;36844;51.898;-0.874;2023-05-25T06:43:03;101792.16;;;19.37;
46015;BME280;36844;51.898;-0.874;2023-05-25T06:45:29;101790.25;;;19.38;
46015;BME280;36844;51.898;-0.874;2023-05-25T06:47:54;101793.72;;;19.38;
46015;BME280;36844;51.898;-0.874;2023-05-25T06:50:19;101791.81;;;19.39;
46015;BME280;36844;51.898;-0.874;2023-05-25T06:52:44;101795.28;;;19.39;
46015;BME280;36844;51.898;-0.874;2023-05-25T06:55:10;101807.63;;;19.40;
46015;BME280;36844;51.898;-0.874;2023-05-25T06:57:36;101803.00;;;19.41;
46015;BME280;36844;51.898;-0.874;2023-05-25T07:00:01;101803.78;;;19.41;
46015;BME280;36844;51.898;-0.874;2023-05-25T07:02:27;101808.06;;;19.42;
46015;BME280;36844;51.898;-0.874;2023-05-25T07:04:52;101806.13;;;19.43;
46015;BME280;36844;51.898;-0.874;2023-05-25T07:07:17;101805.72;;;19.44;
46015;BME280;36844;51.898;-0.874;2023-05-25T07:09:42;101809.22;;;19.45;
46015;BME280;36844;51.898;-0.874;2023-05-25T07:12:08;101812.72;;;19.45;
46015;BME280;36844;51.898;-0.874;2023-05-25T07:14:34;101818.91;;;19.46;
46015;BME280;36844;51.898;-0.874;2023-05-25T07:17:00;101821.19;;;19.47;
46015;BME280;36844;51.898;-0.874;2023-05-25T07:19:25;101811.94;;;19.48;
46015;BME280;36844;51.898;-0.874;2023-05-25T07:21:50;101805.41;;;19.49;
46015;BME280;36844;51.898;-0.874;2023-05-25T07:24:15;101811.59;;;19.50;
46015;BME280;36844;51.898;-0.874;2023-05-25T07:26:42;101815.84;;;19.51;
46015;BME280;36844;51.898;-0.874;2023-05-25T07:29:08;101824.72;;;19.51;
46015;BME280;36844;51.898;-0.874;2023-05-25T07:31:33;101827.06;;;19.53;
46015;BME280;36844;51.898;-0.874;2023-05-25T07:33:58;101832.47;;;19.53;
46015;BME280;36844;51.898;-0.874;2023-05-25T07:36:24;101828.59;;;19.54;
46015;BME280;36844;51.898;-0.874;2023-05-25T07:38:49;101824.75;;;19.55;
46015;BME280;36844;51.898;-0.874;2023-05-25T07:41:14;101827.09;;;19.56;
46015;BME280;36844;51.898;-0.874;2023-05-25T07:43:39;101834.03;;;19.57;
46015;BME280;36844;51.898;-0.874;2023-05-25T07:46:05;101828.63;;;19.57;
46015;BME280;36844;51.898;-0.874;2023-05-25T07:48:30;101828.63;;;19.57;
46015;BME280;36844;51.898;-0.874;2023-05-25T07:50:55;101831.75;;;19.59;
46015;BME280;36844;51.898;-0.874;2023-05-25T07:53:20;101835.22;;;19.60;
46015;BME280;36844;51.898;-0.874;2023-05-25T07:55:46;101833.28;;;19.60;
46015;BME280;36844;51.898;-0.874;2023-05-25T07:58:11;101838.69;;;19.60;
46015;BME280;36844;51.898;-0.874;2023-05-25T08:00:36;101841.41;;;19.60;
46015;BME280;36844;51.898;-0.874;2023-05-25T08:03:01;101840.25;;;19.61;
46015;BME280;36844;51.898;-0.874;2023-05-25T08:05:27;101845.66;;;19.61;
46015;BME280;36844;51.898;-0.874;2023-05-25T08:07:52;101855.34;;;19.62;
46015;BME280;36844;51.898;-0.874;2023-05-25T08:10:18;101852.66;;;19.62;
46015;BME280;36844;51.898;-0.874;2023-05-25T08:12:43;101848.78;;;19.63;
46015;BME280;36844;51.898;-0.874;2023-05-25T08:15:09;101852.25;;;19.64;
46015;BME280;36844;51.898;-0.874;2023-05-25T08:17:34;101851.53;;;19.67;
46015;BME280;36844;51.898;-0.874;2023-05-25T08:19:59;101852.69;;;19.66;
46015;BME280;36844;51.898;-0.874;2023-05-25T08:22:25;101849.19;;;19.65;
46015;BME280;36844;51.898;-0.874;2023-05-25T08:24:51;101849.19;;;19.65;
46015;BME280;36844;51.898;-0.874;2023-05-25T08:27:16;101854.59;;;19.65;
46015;BME280;36844;51.898;-0.874;2023-05-25T08:29:42;101857.31;;;19.65;
46015;BME280;36844;51.898;-0.874;2023-05-25T08:32:07;101860.00;;;19.65;
46015;BME280;36844;51.898;-0.874;2023-05-25T08:34:32;101861.53;;;19.66;
46015;BME280;36844;51.898;-0.874;2023-05-25T08:36:57;101862.72;;;19.65;
46015;BME280;36844;51.898;-0.874;2023-05-25T08:39:23;101853.44;;;19.66;
46015;BME280;36844;51.898;-0.874;2023-05-25T08:41:48;101855.38;;;19.66;
46015;BME280;36844;51.898;-0.874;2023-05-25T08:44:14;101865.03;;;19.67;
46015;BME280;36844;51.898;-0.874;2023-05-25T08:46:40;101862.34;;;19.67;
46015;BME280;36844;51.898;-0.874;2023-05-25T08:49:09;101869.66;;;19.66;
46015;BME280;36844;51.898;-0.874;2023-05-25T08:51:35;101865.03;;;19.67;
46015;BME280;36844;51.898;-0.874;2023-05-25T08:54:06;101865.03;;;19.67;
46015;BME280;36844;51.898;-0.874;2023-05-25T08:56:32;101867.75;;;19.67;
46015;BME280;36844;51.898;-0.874;2023-05-25T08:59:12;101865.78;;;19.67;
46015;BME280;36844;51.898;-0.874;2023-05-25T09:01:42;101860.38;;;19.67;
46015;BME280;36844;51.898;-0.874;2023-05-25T09:04:08;101869.28;;;19.68;
46015;BME280;36844;51.898;-0.874;2023-05-25T09:06:37;101873.91;;;19.67;
46015;BME280;36844;51.898;-0.874;2023-05-25T09:09:03;101867.34;;;19.65;
46015;BME280;36844;51.898;-0.874;2023-05-25T09:11:29;101873.50;;;19.62;
46015;BME280;36844;51.898;-0.874;2023-05-25T09:13:54;101862.66;;;19.58;
46015;BME280;36844;51.898;-0.874;2023-05-25T09:16:20;101864.94;;;19.56;
46015;BME280;36844;51.898;-0.874;2023-05-25T09:18:46;101874.97;;;19.56;
46015;BME280;36844;51.898;-0.874;2023-05-25T09:21:11;101872.25;;;19.56;
46015;BME280;36844;51.898;-0.874;2023-05-25T09:23:37;101871.47;;;19.55;
46015;BME280;36844;51.898;-0.874;2023-05-25T09:26:02;101878.03;;;19.54;
46015;BME280;36844;51.898;-0.874;2023-05-25T09:28:27;101879.59;;;19.55;
46015;BME280;36844;51.898;-0.874;2023-05-25T09:30:53;101880.75;;;19.54;
46015;BME280;36844;51.898;-0.874;2023-05-25T09:33:18;101881.91;;;19.53;
46015;BME280;36844;51.898;-0.874;2023-05-25T09:35:44;101879.22;;;19.53;
46015;BME280;36844;51.898;-0.874;2023-05-25T09:38:11;101877.25;;;19.54;
46015;BME280;36844;51.898;-0.874;2023-05-25T09:40:37;101881.13;;;19.53;
46015;BME280;36844;51.898;-0.874;2023-05-25T09:43:02;101881.91;;;19.53;
46015;BME280;36844;51.898;-0.874;2023-05-25T09:45:28;101883.03;;;19.52;
46015;BME280;36844;51.898;-0.874;2023-05-25T09:47:56;101891.16;;;19.52;
46015;BME280;36844;51.898;-0.874;2023-05-25T09:50:22;101881.13;;;19.53;
46015;BME280;36844;51.898;-0.874;2023-05-25T09:52:47;101908.16;;;19.53;
46015;BME280;36844;51.898;-0.874;2023-05-25T09:55:13;101898.13;;;19.53;
46015;BME280;36844;51.898;-0.874;2023-05-25T09:57:39;101903.53;;;19.53;
46015;BME280;36844;51.898;-0.874;2023-05-25T10:00:05;101895.44;;;19.53;
46015;BME280;36844;51.898;-0.874;2023-05-25T10:02:30;101899.66;;;19.54;
46015;BME280;36844;51.898;-0.874;2023-05-25T10:04:56;101889.56;;;19.51;
46015;BME280;36844;51.898;-0.874;2023-05-25T10:07:21;101900.78;;;19.50;
46015;BME280;36844;51.898;-0.874;2023-05-25T10:09:46;101901.16;;;19.48;
46015;BME280;36844;51.898;-0.874;2023-05-25T10:12:16;101903.06;;;19.48;
46015;BME280;36844;51.898;-0.874;2023-05-25T10:14:43;101906.91;;;19.47;
46015;BME280;36844;51.898;-0.874;2023-05-25T10:17:09;101908.88;;;19.46;
46015;BME280;36844;51.898;-0.874;2023-05-25T10:20:08;101907.28;;;19.45;
46015;BME280;36844;51.898;-0.874;2023-05-25T10:22:30;101911.13;;;19.44;
46015;BME280;36844;51.898;-0.874;2023-05-25T10:24:58;101912.28;;;19.43;
46015;BME280;36844;51.898;-0.874;2023-05-25T10:27:28;101915.75;;;19.44;
46015;BME280;36844;51.898;-0.874;2023-05-25T10:29:57;101910.75;;;19.42;
46015;BME280;36844;51.898;-0.874;2023-05-25T10:32:23;101921.56;;;19.42;
46015;BME280;36844;51.898;-0.874;2023-05-25T10:34:49;101913.78;;;19.41;
46015;BME280;36844;51.898;-0.874;2023-05-25T10:37:15;101918.41;;;19.40;
46015;BME280;36844;51.898;-0.874;2023-05-25T10:39:41;101917.66;;;19.40;
46015;BME280;36844;51.898;-0.874;2023-05-25T10:42:07;101918.81;;;19.39;
46015;BME280;36844;51.898;-0.874;2023-05-25T10:44:33;101921.50;;;19.39;
46015;BME280;36844;51.898;-0.874;2023-05-25T10:46:58;101929.19;;;19.37;
46015;BME280;36844;51.898;-0.874;2023-05-25T10:49:30;101933.84;;;19.36;
46015;BME280;36844;51.898;-0.874;2023-05-25T10:51:57;101924.94;;;19.36;
46015;BME280;36844;51.898;-0.874;2023-05-25T10:54:27;101924.19;;;19.35;
46015;BME280;36844;51.898;-0.874;2023-05-25T10:57:11;101926.09;;;19.35;
46015;BME280;36844;51.898;-0.874;2023-05-25T10:59:40;101933.41;;;19.34;
46015;BME280;36844;51.898;-0.874;2023-05-25T11:02:06;101931.84;;;19.33;
46015;BME280;36844;51.898;-0.874;2023-05-25T11:04:31;101939.19;;;19.33;
46015;BME280;36844;51.898;-0.874;2023-05-25T11:09:27;101927.22;;;19.34;
46015;BME280;36844;51.898;-0.874;2023-05-25T11:11:59;101927.59;;;19.32;
46015;BME280;36844;51.898;-0.874;2023-05-25T11:19:54;101934.19;;;19.35;
46015;BME280;36844;51.898;-0.874;2023-05-25T11:22:22;101921.47;;;19.35;
46015;BME280;36844;51.898;-0.874;2023-05-25T11:24:48;101927.63;;;19.36;
46015;BME280;36844;51.898;-0.874;2023-05-25T11:27:14;101918.38;;;19.37;
46015;BME280;36844;51.898;-0.874;2023-05-25T11:29:39;101922.66;;;19.38;
46015;BME280;36844;51.898;-0.874;2023-05-25T11:32:10;101922.31;;;19.39;
46015;BME280;36844;51.898;-0.874;2023-05-25T11:34:37;101921.13;;;19.40;
46015;BME280;36844;51.898;-0.874;2023-05-25T11:37:02;101915.38;;;19.42;
46015;BME280;36844;51.898;-0.874;2023-05-25T11:39:28;101925.03;;;19.43;
46015;BME280;36844;51.898;-0.874;2023-05-25T11:41:54;101921.94;;;19.44;
46015;BME280;36844;51.898;-0.874;2023-05-25T11:44:27;101914.63;;;19.45;
46015;BME280;36844;51.898;-0.874;2023-05-25T11:46:53;101914.63;;;19.45;
46015;BME280;36844;51.898;-0.874;2023-05-25T11:49:21;101911.56;;;19.46;
46015;BME280;36844;51.898;-0.874;2023-05-25T11:51:46;101919.69;;;19.46;
46015;BME280;36844;51.898;-0.874;2023-05-25T11:54:19;101910.78;;;19.46;
46015;BME280;36844;51.898;-0.874;2023-05-25T11:56:45;101908.09;;;19.46;
46015;BME280;36844;51.898;-0.874;2023-05-25T11:59:10;101902.63;;;19.42;
46015;BME280;36844;51.898;-0.874;2023-05-25T12:01:35;101915.78;;;19.47;
46015;BME280;36844;51.898;-0.874;2023-05-25T12:04:06;101915.44;;;19.49;
46015;BME280;36844;51.898;-0.874;2023-05-25T12:06:32;101913.53;;;19.49;
46015;BME280;36844;51.898;-0.874;2023-05-25T12:09:00;101912.38;;;19.50;
46015;BME280;36844;51.898;-0.874;2023-05-25T12:11:26;101913.91;;;19.51;
46015;BME280;36844;51.898;-0.874;2023-05-25T12:13:52;101912.00;;;19.52;
46015;BME280;36844;51.898;-0.874;2023-05-25T12:16:17;101911.66;;;19.53;
46015;BME280;36844;51.898;-0.874;2023-05-25T12:18:42;101907.00;;;19.54;
46015;BME280;36844;51.898;-0.874;2023-05-25T12:21:08;101910.47;;;19.54;
46015;BME280;36844;51.898;-0.874;2023-05-25T12:23:34;101909.31;;;19.55;
46015;BME280;36844;51.898;-0.874;2023-05-25T12:26:09;101910.91;;;19.56;
46015;BME280;36844;51.898;-0.874;2023-05-25T12:28:35;101917.09;;;19.57;
46015;BME280;36844;51.898;-0.874;2023-05-25T12:31:20;101915.94;;;19.58;
46015;BME280;36844;51.898;-0.874;2023-05-25T12:33:45;101916.72;;;19.58;
46015;BME280;36844;51.898;-0.874;2023-05-25T12:36:10;101915.56;;;19.59;
46015;BME280;36844;51.898;-0.874;2023-05-25T12:38:37;101914.38;;;19.60;
46015;BME280;36844;51.898;-0.874;2023-05-25T12:41:05;101908.97;;;19.60;
46015;BME280;36844;51.898;-0.874;2023-05-25T12:43:37;101895.13;;;19.62;
46015;BME280;36844;51.898;-0.874;2023-05-25T12:46:03;101912.13;;;19.62;
46015;BME280;36844;51.898;-0.874;2023-05-25T12:48:28;101907.47;;;19.63;
46015;BME280;36844;51.898;-0.874;2023-05-25T12:50:57;101900.16;;;19.63;
46015;BME280;36844;51.898;-0.874;2023-05-25T12:53:22;101899.78;;;19.65;
46015;BME280;36844;51.898;-0.874;2023-05-25T12:55:47;101904.06;;;19.66;
46015;BME280;36844;51.898;-0.874;2023-05-25T12:58:25;101905.59;;;19.67;
46015;BME280;36844;51.898;-0.874;2023-05-25T13:00:50;101912.91;;;19.66;
46015;BME280;36844;51.898;-0.874;2023-05-25T13:03:16;101917.16;;;19.67;
46015;BME280;36844;51.898;-0.874;2023-05-25T13:05:42;101905.22;;;19.68;
46015;BME280;36844;51.898;-0.874;2023-05-25T13:08:08;101904.09;;;19.69;
46015;BME280;36844;51.898;-0.874;2023-05-25T13:10:36;101901.38;;;19.69;
46015;BME280;36844;51.898;-0.874;2023-05-25T13:13:02;101899.06;;;19.71;
46015;BME280;36844;51.898;-0.874;2023-05-25T13:15:28;101907.94;;;19.72;
46015;BME280;36844;51.898;-0.874;2023-05-25T13:17:53;101895.22;;;19.72;
46015;BME280;36844;51.898;-0.874;2023-05-25T13:20:20;101897.53;;;19.74;
46015;BME280;36844;51.898;-0.874;2023-05-25T13:22:46;101896.38;;;19.75;
46015;BME280;36844;51.898;-0.874;2023-05-25T13:25:12;101906.84;;;19.76;
46015;BME280;36844;51.898;-0.874;2023-05-25T13:27:41;101906.84;;;19.76;
46015;BME280;36844;51.898;-0.874;2023-05-25T13:30:07;101903.38;;;19.76;
46015;BME280;36844;51.898;-0.874;2023-05-25T13:32:33;101903.75;;;19.78;
46015;BME280;36844;51.898;-0.874;2023-05-25T13:34:58;101908.00;;;19.79;
46015;BME280;36844;51.898;-0.874;2023-05-25T13:37:24;101904.53;;;19.78;